sensor_id;sensor_type;location;lat;lon;timestamp;temperature;humidity
935;DHT22;454;53.254;10.400;2023-04-24T04:02:41;11.00;99.90
935;DHT22;454;53.254;10.400;2023-04-24T04:05:08;10.90;99.90
935;DHT22;454;53.254;10.400;2023-04-24T04:07:34;10.90;99.90
935;DHT22;454;53.254;10.400;2023-04-24T04:10:01;10.90;99.90
935;DHT22;454;53.254;10.400;2023-04-24T04:12:28;10.90;99.90
935;DHT22;454;53.254;10.400;2023-04-24T04:14:55;10.90;99.90
935;DHT22;454;53.254;10.400;2023-04-24T04:17:22;10.80;99.90
935;DHT22;454;53.254;10.400;2023-04-24T04:19:50;10.80;99.90
935;DHT22;454;53.254;10.400;2023-04-24T04:22:17;10.80;99.90
935;DHT22;454;53.254;10.400;2023-04-24T04:24:43;10.80;99.90
935;DHT22;454;53.254;10.400;2023-04-24T04:27:11;10.80;99.90
935;DHT22;454;53.254;10.400;2023-04-24T04:29:38;10.70;99.90
935;DHT22;454;53.254;10.400;2023-04-24T04:32:05;10.70;99.90
935;DHT22;454;53.254;10.400;2023-04-24T04:34:32;10.70;99.90
935;DHT22;454;53.254;10.400;2023-04-24T04:37:00;10.70;99.90
935;DHT22;454;53.254;10.400;2023-04-24T04:39:27;10.70;99.90
935;DHT22;454;53.254;10.400;2023-04-24T04:41:55;10.80;99.90
935;DHT22;454;53.254;10.400;2023-04-24T04:44:22;11.00;99.90
935;DHT22;454;53.254;10.400;2023-04-24T04:46:49;11.30;99.90
935;DHT22;454;53.254;10.400;2023-04-24T04:49:18;11.30;99.90
935;DHT22;454;53.254;10.400;2023-04-24T04:51:47;11.30;99.90
935;DHT22;454;53.254;10.400;2023-04-24T04:54:15;11.20;99.90
935;DHT22;454;53.254;10.400;2023-04-24T04:56:42;11.30;99.90
935;DHT22;454;53.254;10.400;2023-04-24T04:59:08;11.50;99.90
935;DHT22;454;53.254;10.400;2023-04-24T05:01:36;11.70;99.90
935;DHT22;454;53.254;10.400;2023-04-24T05:04:03;11.70;99.90
935;DHT22;454;53.254;10.400;2023-04-24T05:06:30;11.70;99.90
935;DHT22;454;53.254;10.400;2023-04-24T05:08:56;11.60;99.90
935;DHT22;454;53.254;10.400;2023-04-24T05:11:24;11.70;99.90
935;DHT22;454;53.254;10.400;2023-04-24T05:13:51;11.70;99.90
935;DHT22;454;53.254;10.400;2023-04-24T05:16:18;11.80;99.90
935;DHT22;454;53.254;10.400;2023-04-24T05:18:45;11.80;99.90
935;DHT22;454;53.254;10.400;2023-04-24T05:21:11;11.90;99.90
935;DHT22;454;53.254;10.400;2023-04-24T05:23:38;12.00;99.90
935;DHT22;454;53.254;10.400;2023-04-24T05:26:05;12.00;99.90
935;DHT22;454;53.254;10.400;2023-04-24T05:28:33;12.00;99.90
935;DHT22;454;53.254;10.400;2023-04-24T05:31:02;12.00;99.90
935;DHT22;454;53.254;10.400;2023-04-24T05:33:28;11.90;99.90
935;DHT22;454;53.254;10.400;2023-04-24T05:35:55;11.90;99.90
935;DHT22;454;53.254;10.400;2023-04-24T05:38:22;12.00;99.90
935;DHT22;454;53.254;10.400;2023-04-24T05:40:49;12.00;99.90
935;DHT22;454;53.254;10.400;2023-04-24T05:43:15;12.10;99.90
935;DHT22;454;53.254;10.400;2023-04-24T05:45:43;12.10;99.90
935;DHT22;454;53.254;10.400;2023-04-24T05:48:10;12.10;99.90
935;DHT22;454;53.254;10.400;2023-04-24T05:50:37;12.10;99.90
935;DHT22;454;53.254;10.400;2023-04-24T05:53:03;12.10;99.90
935;DHT22;454;53.254;10.400;2023-04-24T05:55:32;12.20;99.90
935;DHT22;454;53.254;10.400;2023-04-24T05:57:59;12.20;99.90
935;DHT22;454;53.254;10.400;2023-04-24T06:00:26;12.20;99.90
935;DHT22;454;53.254;10.400;2023-04-24T06:02:55;12.20;99.90
935;DHT22;454;53.254;10.400;2023-04-24T06:05:22;12.10;99.90
935;DHT22;454;53.254;10.400;2023-04-24T06:07:48;12.20;99.90
935;DHT22;454;53.254;10.400;2023-04-24T06:10:15;12.50;99.90
935;DHT22;454;53.254;10.400;2023-04-24T06:12:42;13.20;99.90
935;DHT22;454;53.254;10.400;2023-04-24T06:15:09;14.00;99.90
935;DHT22;454;53.254;10.400;2023-04-24T06:17:37;14.60;99.90
935;DHT22;454;53.254;10.400;2023-04-24T06:20:06;15.40;99.90
935;DHT22;454;53.254;10.400;2023-04-24T06:22:33;15.90;99.90
935;DHT22;454;53.254;10.400;2023-04-24T06:25:00;16.20;99.90
935;DHT22;454;53.254;10.400;2023-04-24T06:27:27;16.10;99.90
935;DHT22;454;53.254;10.400;2023-04-24T06:29:54;16.30;99.90
935;DHT22;454;53.254;10.400;2023-04-24T06:32:22;16.60;99.90
935;DHT22;454;53.254;10.400;2023-04-24T06:34:52;17.00;99.90
935;DHT22;454;53.254;10.400;2023-04-24T06:37:20;17.60;99.90
935;DHT22;454;53.254;10.400;2023-04-24T06:39:47;17.80;99.90
935;DHT22;454;53.254;10.400;2023-04-24T06:42:14;18.30;99.90
935;DHT22;454;53.254;10.400;2023-04-24T06:44:40;18.40;99.90
935;DHT22;454;53.254;10.400;2023-04-24T06:47:08;18.60;99.90
935;DHT22;454;53.254;10.400;2023-04-24T06:49:35;18.90;99.90
935;DHT22;454;53.254;10.400;2023-04-24T06:52:02;18.30;99.90
935;DHT22;454;53.254;10.400;2023-04-24T06:54:31;18.10;99.90
935;DHT22;454;53.254;10.400;2023-04-24T06:56:58;18.20;99.90
935;DHT22;454;53.254;10.400;2023-04-24T06:59:26;18.60;99.90
935;DHT22;454;53.254;10.400;2023-04-24T07:01:52;18.80;99.90
935;DHT22;454;53.254;10.400;2023-04-24T07:04:19;19.00;99.90
935;DHT22;454;53.254;10.400;2023-04-24T07:06:46;18.70;99.90
935;DHT22;454;53.254;10.400;2023-04-24T07:09:13;18.60;99.90
935;DHT22;454;53.254;10.400;2023-04-24T07:11:42;18.30;99.90
935;DHT22;454;53.254;10.400;2023-04-24T07:14:10;17.80;99.90
935;DHT22;454;53.254;10.400;2023-04-24T07:16:37;17.20;99.90
935;DHT22;454;53.254;10.400;2023-04-24T07:19:03;16.90;99.90
935;DHT22;454;53.254;10.400;2023-04-24T07:21:30;17.10;99.90
935;DHT22;454;53.254;10.400;2023-04-24T07:23:57;17.50;99.90
935;DHT22;454;53.254;10.400;2023-04-24T07:26:25;18.00;99.90
935;DHT22;454;53.254;10.400;2023-04-24T07:28:53;17.90;99.90
935;DHT22;454;53.254;10.400;2023-04-24T07:31:20;17.90;99.90
935;DHT22;454;53.254;10.400;2023-04-24T07:33:47;17.50;99.90
935;DHT22;454;53.254;10.400;2023-04-24T07:36:14;17.00;99.90
935;DHT22;454;53.254;10.400;2023-04-24T07:38:44;16.50;99.90
935;DHT22;454;53.254;10.400;2023-04-24T07:41:11;16.10;99.90
935;DHT22;454;53.254;10.400;2023-04-24T07:43:38;16.10;99.90
935;DHT22;454;53.254;10.400;2023-04-24T07:46:06;15.90;99.90
935;DHT22;454;53.254;10.400;2023-04-24T07:48:33;15.80;99.90
935;DHT22;454;53.254;10.400;2023-04-24T07:50:59;15.70;99.90
935;DHT22;454;53.254;10.400;2023-04-24T07:53:26;15.60;99.90
935;DHT22;454;53.254;10.400;2023-04-24T07:55:54;15.60;99.90
935;DHT22;454;53.254;10.400;2023-04-24T07:58:21;15.50;99.90
935;DHT22;454;53.254;10.400;2023-04-24T08:00:48;15.50;99.90
935;DHT22;454;53.254;10.400;2023-04-24T08:03:16;15.50;99.90
935;DHT22;454;53.254;10.400;2023-04-24T08:05:45;15.50;99.90
935;DHT22;454;53.254;10.400;2023-04-24T08:08:12;15.40;99.90
935;DHT22;454;53.254;10.400;2023-04-24T08:10:39;15.40;99.90
935;DHT22;454;53.254;10.400;2023-04-24T08:13:05;15.30;99.90
935;DHT22;454;53.254;10.400;2023-04-24T08:15:32;15.30;99.90
935;DHT22;454;53.254;10.400;2023-04-24T08:17:59;15.30;99.90
935;DHT22;454;53.254;10.400;2023-04-24T08:20:27;15.20;99.90
935;DHT22;454;53.254;10.400;2023-04-24T08:22:54;15.20;99.90
935;DHT22;454;53.254;10.400;2023-04-24T08:25:22;15.20;99.90
935;DHT22;454;53.254;10.400;2023-04-24T08:27:50;15.30;99.90
935;DHT22;454;53.254;10.400;2023-04-24T08:30:17;15.30;99.90
935;DHT22;454;53.254;10.400;2023-04-24T08:32:43;15.40;99.90
935;DHT22;454;53.254;10.400;2023-04-24T08:35:10;15.50;99.90
935;DHT22;454;53.254;10.400;2023-04-24T08:37:39;15.40;99.90
935;DHT22;454;53.254;10.400;2023-04-24T08:40:10;15.50;99.90
935;DHT22;454;53.254;10.400;2023-04-24T08:42:39;15.30;99.90
935;DHT22;454;53.254;10.400;2023-04-24T08:45:07;15.30;99.90
935;DHT22;454;53.254;10.400;2023-04-24T08:47:35;15.30;99.90
935;DHT22;454;53.254;10.400;2023-04-24T08:50:02;15.20;99.90
935;DHT22;454;53.254;10.400;2023-04-24T08:52:32;15.20;99.90
935;DHT22;454;53.254;10.400;2023-04-24T08:55:01;15.20;99.90
935;DHT22;454;53.254;10.400;2023-04-24T08:57:28;15.20;99.90
935;DHT22;454;53.254;10.400;2023-04-24T08:59:56;15.30;99.90
935;DHT22;454;53.254;10.400;2023-04-24T09:02:25;15.50;99.90
935;DHT22;454;53.254;10.400;2023-04-24T09:04:52;15.60;99.90
935;DHT22;454;53.254;10.400;2023-04-24T09:07:19;15.60;99.90
935;DHT22;454;53.254;10.400;2023-04-24T09:09:50;15.70;99.90
935;DHT22;454;53.254;10.400;2023-04-24T09:12:19;15.70;99.90
935;DHT22;454;53.254;10.400;2023-04-24T09:14:45;15.40;99.90
935;DHT22;454;53.254;10.400;2023-04-24T09:17:12;15.20;99.90
935;DHT22;454;53.254;10.400;2023-04-24T09:19:39;15.10;99.90
935;DHT22;454;53.254;10.400;2023-04-24T09:22:07;15.10;99.90
935;DHT22;454;53.254;10.400;2023-04-24T09:24:34;15.00;99.90
935;DHT22;454;53.254;10.400;2023-04-24T09:27:02;15.10;99.90
935;DHT22;454;53.254;10.400;2023-04-24T09:29:30;15.00;99.90
935;DHT22;454;53.254;10.400;2023-04-24T09:31:58;14.90;99.90
935;DHT22;454;53.254;10.400;2023-04-24T09:34:26;14.90;99.90
935;DHT22;454;53.254;10.400;2023-04-24T09:36:53;14.90;99.90
935;DHT22;454;53.254;10.400;2023-04-24T09:39:20;15.00;99.90
935;DHT22;454;53.254;10.400;2023-04-24T09:41:49;15.10;99.90
935;DHT22;454;53.254;10.400;2023-04-24T09:44:16;15.20;99.90
935;DHT22;454;53.254;10.400;2023-04-24T09:46:51;15.10;99.90
935;DHT22;454;53.254;10.400;2023-04-24T09:49:22;15.10;99.90
935;DHT22;454;53.254;10.400;2023-04-24T09:51:50;15.10;99.90
935;DHT22;454;53.254;10.400;2023-04-24T09:54:18;15.10;99.90
935;DHT22;454;53.254;10.400;2023-04-24T09:56:47;15.10;99.90
935;DHT22;454;53.254;10.400;2023-04-24T09:59:15;15.10;99.90
935;DHT22;454;53.254;10.400;2023-04-24T10:01:42;15.00;99.90
935;DHT22;454;53.254;10.400;2023-04-24T10:04:18;14.90;99.90
935;DHT22;454;53.254;10.400;2023-04-24T10:06:46;15.10;99.90
935;DHT22;454;53.254;10.400;2023-04-24T10:09:14;15.30;99.90
935;DHT22;454;53.254;10.400;2023-04-24T10:11:42;15.30;99.90
935;DHT22;454;53.254;10.400;2023-04-24T10:14:12;15.40;99.90
935;DHT22;454;53.254;10.400;2023-04-24T10:16:40;15.30;99.90
935;DHT22;454;53.254;10.400;2023-04-24T10:19:07;15.20;99.90
935;DHT22;454;53.254;10.400;2023-04-24T10:21:35;15.30;99.90
935;DHT22;454;53.254;10.400;2023-04-24T10:24:03;15.40;99.90
935;DHT22;454;53.254;10.400;2023-04-24T10:26:33;15.50;99.90
935;DHT22;454;53.254;10.400;2023-04-24T10:29:01;15.40;99.90
935;DHT22;454;53.254;10.400;2023-04-24T10:31:31;15.40;99.90
935;DHT22;454;53.254;10.400;2023-04-24T10:33:58;15.30;99.90
935;DHT22;454;53.254;10.400;2023-04-24T10:36:27;15.30;99.90
935;DHT22;454;53.254;10.400;2023-04-24T10:39:01;15.50;99.90
935;DHT22;454;53.254;10.400;2023-04-24T10:41:30;15.60;99.90
935;DHT22;454;53.254;10.400;2023-04-24T10:44:06;15.60;99.90
935;DHT22;454;53.254;10.400;2023-04-24T10:46:34;15.50;99.90
935;DHT22;454;53.254;10.400;2023-04-24T10:49:04;15.40;99.90
935;DHT22;454;53.254;10.400;2023-04-24T10:51:47;15.40;99.90
935;DHT22;454;53.254;10.400;2023-04-24T10:54:26;15.40;99.90
935;DHT22;454;53.254;10.400;2023-04-24T10:57:25;15.30;99.90
935;DHT22;454;53.254;10.400;2023-04-24T11:00:13;15.30;99.90
935;DHT22;454;53.254;10.400;2023-04-24T11:02:41;15.40;99.90
935;DHT22;454;53.254;10.400;2023-04-24T11:05:15;15.60;99.90
935;DHT22;454;53.254;10.400;2023-04-24T11:08:10;15.60;99.90
935;DHT22;454;53.254;10.400;2023-04-24T11:10:43;15.50;99.90
935;DHT22;454;53.254;10.400;2023-04-24T11:13:10;15.40;99.90
935;DHT22;454;53.254;10.400;2023-04-24T11:15:41;15.30;99.90
935;DHT22;454;53.254;10.400;2023-04-24T11:18:13;15.20;99.90
935;DHT22;454;53.254;10.400;2023-04-24T11:20:42;15.10;99.90
935;DHT22;454;53.254;10.400;2023-04-24T11:23:09;15.20;99.90
935;DHT22;454;53.254;10.400;2023-04-24T11:25:40;15.20;99.90
935;DHT22;454;53.254;10.400;2023-04-24T11:28:07;15.30;99.90
935;DHT22;454;53.254;10.400;2023-04-24T11:30:41;15.40;99.90
935;DHT22;454;53.254;10.400;2023-04-24T11:33:07;15.60;99.90
935;DHT22;454;53.254;10.400;2023-04-24T11:35:40;15.80;99.90
935;DHT22;454;53.254;10.400;2023-04-24T11:38:07;15.80;99.90
935;DHT22;454;53.254;10.400;2023-04-24T11:40:34;15.70;99.90
935;DHT22;454;53.254;10.400;2023-04-24T11:43:02;15.80;99.90
935;DHT22;454;53.254;10.400;2023-04-24T11:45:30;15.80;99.90
935;DHT22;454;53.254;10.400;2023-04-24T11:47:57;15.90;99.90
935;DHT22;454;53.254;10.400;2023-04-24T11:50:26;16.10;99.90
935;DHT22;454;53.254;10.400;2023-04-24T11:52:55;16.10;99.90
935;DHT22;454;53.254;10.400;2023-04-24T11:55:26;16.20;99.90
935;DHT22;454;53.254;10.400;2023-04-24T11:57:55;16.30;99.90
935;DHT22;454;53.254;10.400;2023-04-24T12:00:26;16.40;99.90
935;DHT22;454;53.254;10.400;2023-04-24T12:03:03;16.20;99.90
935;DHT22;454;53.254;10.400;2023-04-24T12:05:30;16.20;99.90
935;DHT22;454;53.254;10.400;2023-04-24T12:07:58;16.00;99.90
935;DHT22;454;53.254;10.400;2023-04-24T12:10:26;15.80;99.90
935;DHT22;454;53.254;10.400;2023-04-24T12:12:55;15.50;99.90
935;DHT22;454;53.254;10.400;2023-04-24T12:15:24;15.40;99.90
935;DHT22;454;53.254;10.400;2023-04-24T12:17:52;15.50;99.90
935;DHT22;454;53.254;10.400;2023-04-24T12:20:24;15.60;99.90
935;DHT22;454;53.254;10.400;2023-04-24T12:22:53;15.70;99.90
935;DHT22;454;53.254;10.400;2023-04-24T12:25:21;15.70;99.90
935;DHT22;454;53.254;10.400;2023-04-24T12:27:52;15.90;99.90
935;DHT22;454;53.254;10.400;2023-04-24T12:30:20;15.90;99.90
935;DHT22;454;53.254;10.400;2023-04-24T12:32:49;15.90;99.90
935;DHT22;454;53.254;10.400;2023-04-24T12:35:19;15.90;99.90
935;DHT22;454;53.254;10.400;2023-04-24T12:37:46;16.00;99.90
935;DHT22;454;53.254;10.400;2023-04-24T12:40:14;16.10;99.90
935;DHT22;454;53.254;10.400;2023-04-24T12:42:42;16.00;99.90
935;DHT22;454;53.254;10.400;2023-04-24T12:45:09;15.90;99.90
935;DHT22;454;53.254;10.400;2023-04-24T12:47:38;15.80;99.90
935;DHT22;454;53.254;10.400;2023-04-24T12:50:08;15.90;99.90
935;DHT22;454;53.254;10.400;2023-04-24T12:52:36;15.90;99.90
935;DHT22;454;53.254;10.400;2023-04-24T12:55:04;15.90;99.90
935;DHT22;454;53.254;10.400;2023-04-24T12:57:33;15.70;99.90
935;DHT22;454;53.254;10.400;2023-04-24T13:00:01;15.30;99.90
935;DHT22;454;53.254;10.400;2023-04-24T13:02:29;15.10;99.90
935;DHT22;454;53.254;10.400;2023-04-24T13:04:56;14.80;99.90
935;DHT22;454;53.254;10.400;2023-04-24T13:07:25;14.80;99.90
935;DHT22;454;53.254;10.400;2023-04-24T13:09:52;14.60;99.90
935;DHT22;454;53.254;10.400;2023-04-24T13:12:19;14.50;99.90
935;DHT22;454;53.254;10.400;2023-04-24T13:14:46;14.50;99.90
935;DHT22;454;53.254;10.400;2023-04-24T13:17:14;14.50;99.90
935;DHT22;454;53.254;10.400;2023-04-24T13:19:42;14.50;99.90
935;DHT22;454;53.254;10.400;2023-04-24T13:22:10;14.60;99.90
935;DHT22;454;53.254;10.400;2023-04-24T13:24:39;14.40;99.90
935;DHT22;454;53.254;10.400;2023-04-24T13:27:07;14.30;99.90
935;DHT22;454;53.254;10.400;2023-04-24T13:29:34;14.20;99.90
935;DHT22;454;53.254;10.400;2023-04-24T13:32:01;14.20;99.90
935;DHT22;454;53.254;10.400;2023-04-24T13:34:27;14.10;99.90
935;DHT22;454;53.254;10.400;2023-04-24T13:36:56;14.20;99.90
935;DHT22;454;53.254;10.400;2023-04-24T13:39:24;14.20;99.90
935;DHT22;454;53.254;10.400;2023-04-24T13:41:52;14.30;99.90
935;DHT22;454;53.254;10.400;2023-04-24T13:44:20;14.50;99.90
935;DHT22;454;53.254;10.400;2023-04-24T13:46:49;14.60;99.90
935;DHT22;454;53.254;10.400;2023-04-24T13:49:17;14.70;99.90
935;DHT22;454;53.254;10.400;2023-04-24T13:51:44;14.90;99.90
935;DHT22;454;53.254;10.400;2023-04-24T13:54:11;14.80;99.90
935;DHT22;454;53.254;10.400;2023-04-24T13:56:38;14.90;99.90
935;DHT22;454;53.254;10.400;2023-04-24T13:59:07;14.90;99.90
935;DHT22;454;53.254;10.400;2023-04-24T14:01:34;14.80;99.90
935;DHT22;454;53.254;10.400;2023-04-24T14:04:01;14.90;99.90
935;DHT22;454;53.254;10.400;2023-04-24T14:06:28;14.80;99.90
935;DHT22;454;53.254;10.400;2023-04-24T14:08:55;14.70;99.90
935;DHT22;454;53.254;10.400;2023-04-24T14:11:21;14.60;99.90
935;DHT22;454;53.254;10.400;2023-04-24T14:13:48;14.50;99.90
935;DHT22;454;53.254;10.400;2023-04-24T14:16:17;14.40;99.90
935;DHT22;454;53.254;10.400;2023-04-24T14:18:44;14.30;99.90
935;DHT22;454;53.254;10.400;2023-04-24T14:21:10;14.30;99.90
935;DHT22;454;53.254;10.400;2023-04-24T14:23:37;14.30;99.90
935;DHT22;454;53.254;10.400;2023-04-24T14:26:04;14.30;99.90
935;DHT22;454;53.254;10.400;2023-04-24T14:28:32;14.20;99.90
935;DHT22;454;53.254;10.400;2023-04-24T14:30:58;14.20;99.90
935;DHT22;454;53.254;10.400;2023-04-24T14:33:26;14.20;99.90
935;DHT22;454;53.254;10.400;2023-04-24T14:35:53;14.10;99.90
935;DHT22;454;53.254;10.400;2023-04-24T14:38:21;14.10;99.90
935;DHT22;454;53.254;10.400;2023-04-24T14:40:48;14.20;99.90
935;DHT22;454;53.254;10.400;2023-04-24T14:43:15;14.30;99.90
935;DHT22;454;53.254;10.400;2023-04-24T14:45:42;14.20;99.90
935;DHT22;454;53.254;10.400;2023-04-24T14:48:08;14.00;99.90
935;DHT22;454;53.254;10.400;2023-04-24T14:50:38;13.90;99.90
935;DHT22;454;53.254;10.400;2023-04-24T14:53:04;13.70;99.90
935;DHT22;454;53.254;10.400;2023-04-24T14:55:31;13.50;99.90
935;DHT22;454;53.254;10.400;2023-04-24T14:57:59;13.40;99.90
935;DHT22;454;53.254;10.400;2023-04-24T15:00:26;13.30;99.90
935;DHT22;454;53.254;10.400;2023-04-24T15:02:53;13.20;99.90
935;DHT22;454;53.254;10.400;2023-04-24T15:05:20;13.10;99.90
935;DHT22;454;53.254;10.400;2023-04-24T15:07:49;13.10;99.90
935;DHT22;454;53.254;10.400;2023-04-24T15:10:16;13.00;99.90
935;DHT22;454;53.254;10.400;2023-04-24T15:12:43;12.90;99.90
935;DHT22;454;53.254;10.400;2023-04-24T15:15:10;12.80;99.90
935;DHT22;454;53.254;10.400;2023-04-24T15:17:36;12.70;99.90
935;DHT22;454;53.254;10.400;2023-04-24T15:20:04;12.60;99.90
935;DHT22;454;53.254;10.400;2023-04-24T15:22:32;12.60;99.90
935;DHT22;454;53.254;10.400;2023-04-24T15:25:00;12.60;99.90
935;DHT22;454;53.254;10.400;2023-04-24T15:27:33;12.40;99.90
935;DHT22;454;53.254;10.400;2023-04-24T15:30:06;12.30;99.90
935;DHT22;454;53.254;10.400;2023-04-24T15:32:33;12.30;99.90
935;DHT22;454;53.254;10.400;2023-04-24T15:35:00;12.20;99.90
935;DHT22;454;53.254;10.400;2023-04-24T15:37:27;12.20;99.90
935;DHT22;454;53.254;10.400;2023-04-24T15:39:54;12.10;99.90
935;DHT22;454;53.254;10.400;2023-04-24T15:42:22;12.10;99.90
935;DHT22;454;53.254;10.400;2023-04-24T15:44:48;12.00;99.90
935;DHT22;454;53.254;10.400;2023-04-24T15:47:15;11.90;99.90
935;DHT22;454;53.254;10.400;2023-04-24T15:49:42;11.90;99.90
935;DHT22;454;53.254;10.400;2023-04-24T15:52:09;11.80;99.90
935;DHT22;454;53.254;10.400;2023-04-24T15:54:36;11.80;99.90
935;DHT22;454;53.254;10.400;2023-04-24T15:57:03;11.70;99.90
935;DHT22;454;53.254;10.400;2023-04-24T15:59:31;11.50;99.90
935;DHT22;454;53.254;10.400;2023-04-24T16:01:58;11.20;99.90
935;DHT22;454;53.254;10.400;2023-04-24T16:04:25;10.90;99.90
935;DHT22;454;53.254;10.400;2023-04-24T16:06:52;10.70;99.90
935;DHT22;454;53.254;10.400;2023-04-24T16:09:19;10.50;99.90
935;DHT22;454;53.254;10.400;2023-04-24T16:11:45;10.40;99.90
935;DHT22;454;53.254;10.400;2023-04-24T16:14:12;10.30;99.90
935;DHT22;454;53.254;10.400;2023-04-24T16:16:40;10.30;99.90
935;DHT22;454;53.254;10.400;2023-04-24T16:19:07;10.20;99.90
935;DHT22;454;53.254;10.400;2023-04-24T16:21:34;10.10;99.90
935;DHT22;454;53.254;10.400;2023-04-24T16:24:01;10.10;99.90
935;DHT22;454;53.254;10.400;2023-04-24T16:26:27;10.00;99.90
935;DHT22;454;53.254;10.400;2023-04-24T16:28:54;9.90;99.90
935;DHT22;454;53.254;10.400;2023-04-24T16:31:21;9.90;99.90
935;DHT22;454;53.254;10.400;2023-04-24T16:33:49;9.80;99.90
935;DHT22;454;53.254;10.400;2023-04-24T16:36:16;9.90;99.90
935;DHT22;454;53.254;10.400;2023-04-24T16:38:42;9.80;99.90
935;DHT22;454;53.254;10.400;2023-04-24T16:41:09;9.70;99.90
935;DHT22;454;53.254;10.400;2023-04-24T16:43:36;9.70;99.90
935;DHT22;454;53.254;10.400;2023-04-24T16:46:02;9.70;99.90
935;DHT22;454;53.254;10.400;2023-04-24T16:48:31;9.60;99.90
935;DHT22;454;53.254;10.400;2023-04-24T16:51:00;9.60;99.90
935;DHT22;454;53.254;10.400;2023-04-24T16:53:26;9.60;99.90
935;DHT22;454;53.254;10.400;2023-04-24T16:55:53;9.60;99.90
935;DHT22;454;53.254;10.400;2023-04-24T16:58:20;9.60;99.90
935;DHT22;454;53.254;10.400;2023-04-24T17:00:46;9.60;99.90
935;DHT22;454;53.254;10.400;2023-04-24T17:03:13;9.60;99.90
935;DHT22;454;53.254;10.400;2023-04-24T17:05:40;9.60;99.90
935;DHT22;454;53.254;10.400;2023-04-24T17:08:08;9.50;99.90
935;DHT22;454;53.254;10.400;2023-04-24T17:10:35;9.60;99.90
935;DHT22;454;53.254;10.400;2023-04-24T17:13:01;9.50;99.90
935;DHT22;454;53.254;10.400;2023-04-24T17:15:28;9.50;99.90
935;DHT22;454;53.254;10.400;2023-04-24T17:17:55;9.40;99.90
935;DHT22;454;53.254;10.400;2023-04-24T17:20:22;9.40;99.90
935;DHT22;454;53.254;10.400;2023-04-24T17:22:49;9.40;99.90
935;DHT22;454;53.254;10.400;2023-04-24T17:25:17;9.40;99.90
935;DHT22;454;53.254;10.400;2023-04-24T17:27:44;9.40;99.90
935;DHT22;454;53.254;10.400;2023-04-24T17:30:12;9.40;99.90
935;DHT22;454;53.254;10.400;2023-04-24T17:32:39;9.40;99.90
935;DHT22;454;53.254;10.400;2023-04-24T17:35:07;9.40;99.90
935;DHT22;454;53.254;10.400;2023-04-24T17:37:34;9.40;99.90
935;DHT22;454;53.254;10.400;2023-04-24T17:40:00;9.30;99.90
935;DHT22;454;53.254;10.400;2023-04-24T17:42:30;9.30;99.90
935;DHT22;454;53.254;10.400;2023-04-24T17:44:56;9.30;99.90
935;DHT22;454;53.254;10.400;2023-04-24T17:47:23;9.30;99.90
935;DHT22;454;53.254;10.400;2023-04-24T17:49:51;9.30;99.90
935;DHT22;454;53.254;10.400;2023-04-24T17:52:18;9.30;99.90
935;DHT22;454;53.254;10.400;2023-04-24T17:54:45;9.30;99.90
935;DHT22;454;53.254;10.400;2023-04-24T17:57:14;9.20;99.90
935;DHT22;454;53.254;10.400;2023-04-24T17:59:42;9.20;99.90
935;DHT22;454;53.254;10.400;2023-04-24T18:02:08;9.20;99.90
935;DHT22;454;53.254;10.400;2023-04-24T18:04:35;9.20;99.90
935;DHT22;454;53.254;10.400;2023-04-24T18:07:03;9.20;99.90
935;DHT22;454;53.254;10.400;2023-04-24T18:09:30;9.20;99.90
935;DHT22;454;53.254;10.400;2023-04-24T18:11:57;9.20;99.90
935;DHT22;454;53.254;10.400;2023-04-24T18:14:23;9.20;99.90
935;DHT22;454;53.254;10.400;2023-04-24T18:16:54;9.20;99.90
935;DHT22;454;53.254;10.400;2023-04-24T18:19:21;9.20;99.90
935;DHT22;454;53.254;10.400;2023-04-24T18:21:48;9.20;99.90
935;DHT22;454;53.254;10.400;2023-04-24T18:24:15;9.20;99.90
935;DHT22;454;53.254;10.400;2023-04-24T18:26:42;9.20;99.90
935;DHT22;454;53.254;10.400;2023-04-24T18:29:08;9.20;99.90
935;DHT22;454;53.254;10.400;2023-04-24T18:31:35;9.20;99.90
935;DHT22;454;53.254;10.400;2023-04-24T18:34:03;9.20;99.90
935;DHT22;454;53.254;10.400;2023-04-24T18:36:30;9.20;99.90
935;DHT22;454;53.254;10.400;2023-04-24T18:38:57;9.10;99.90
935;DHT22;454;53.254;10.400;2023-04-24T18:41:23;9.20;99.90
935;DHT22;454;53.254;10.400;2023-04-24T18:43:50;9.20;99.90
935;DHT22;454;53.254;10.400;2023-04-24T18:46:17;9.20;99.90
935;DHT22;454;53.254;10.400;2023-04-24T18:48:44;9.20;99.90
935;DHT22;454;53.254;10.400;2023-04-24T18:51:12;9.20;99.90
935;DHT22;454;53.254;10.400;2023-04-24T18:53:39;9.20;99.90
935;DHT22;454;53.254;10.400;2023-04-24T18:56:06;9.20;99.90
935;DHT22;454;53.254;10.400;2023-04-24T18:58:32;9.20;99.90
935;DHT22;454;53.254;10.400;2023-04-24T19:00:59;9.20;99.90
935;DHT22;454;53.254;10.400;2023-04-24T19:03:26;9.20;99.90
935;DHT22;454;53.254;10.400;2023-04-24T19:05:54;9.30;99.90
935;DHT22;454;53.254;10.400;2023-04-24T19:08:22;9.30;99.90
935;DHT22;454;53.254;10.400;2023-04-24T19:10:49;9.30;99.90
935;DHT22;454;53.254;10.400;2023-04-24T19:13:15;9.30;99.90
935;DHT22;454;53.254;10.400;2023-04-24T19:15:42;9.30;99.90
935;DHT22;454;53.254;10.400;2023-04-24T19:18:09;9.30;99.90
935;DHT22;454;53.254;10.400;2023-04-24T19:20:36;9.30;99.90
935;DHT22;454;53.254;10.400;2023-04-24T19:23:03;9.30;99.90
935;DHT22;454;53.254;10.400;2023-04-24T19:25:31;9.30;99.90
935;DHT22;454;53.254;10.400;2023-04-24T19:27:58;9.30;99.90
935;DHT22;454;53.254;10.400;2023-04-24T19:30:25;9.30;99.90
935;DHT22;454;53.254;10.400;2023-04-24T19:32:52;9.30;99.90
935;DHT22;454;53.254;10.400;2023-04-24T19:35:18;9.30;99.90
935;DHT22;454;53.254;10.400;2023-04-24T19:37:45;9.30;99.90
935;DHT22;454;53.254;10.400;2023-04-24T19:40:12;9.30;99.90
935;DHT22;454;53.254;10.400;2023-04-24T19:42:40;9.30;99.90
935;DHT22;454;53.254;10.400;2023-04-24T19:45:08;9.30;99.90
935;DHT22;454;53.254;10.400;2023-04-24T19:47:35;9.30;99.90
935;DHT22;454;53.254;10.400;2023-04-24T19:50:02;9.30;99.90
935;DHT22;454;53.254;10.400;2023-04-24T19:52:29;9.30;99.90
935;DHT22;454;53.254;10.400;2023-04-24T19:54:56;9.30;99.90
935;DHT22;454;53.254;10.400;2023-04-24T19:57:23;9.30;99.90
935;DHT22;454;53.254;10.400;2023-04-24T19:59:51;9.30;99.90
935;DHT22;454;53.254;10.400;2023-04-24T20:02:18;9.40;99.90
935;DHT22;454;53.254;10.400;2023-04-24T20:04:44;9.30;99.90
935;DHT22;454;53.254;10.400;2023-04-24T20:07:11;9.30;99.90
935;DHT22;454;53.254;10.400;2023-04-24T20:09:38;9.30;99.90
935;DHT22;454;53.254;10.400;2023-04-24T20:12:05;9.40;99.90
935;DHT22;454;53.254;10.400;2023-04-24T20:14:31;9.30;99.90
935;DHT22;454;53.254;10.400;2023-04-24T20:16:59;9.30;99.90
935;DHT22;454;53.254;10.400;2023-04-24T20:19:26;9.30;99.90
935;DHT22;454;53.254;10.400;2023-04-24T20:21:53;9.30;99.90
935;DHT22;454;53.254;10.400;2023-04-24T20:24:20;9.30;99.90
935;DHT22;454;53.254;10.400;2023-04-24T20:26:46;9.30;99.90